Time;durP1;ratioP1;P1;durP2;ratioP2;P2;SDS_P1;SDS_P2;PMS_P1;PMS_P2;Temp;Humidity;BMP_temperature;BMP_pressure;BME280_temperature;BME280_humidity;BME280_pressure;Samples;Min_cycle;Max_cycle;Signal;HPM_P1;HPM_P2
2022/09/18 00:02:26;;;;;;;1.93;1.07;;;;;;;9.35;100.00;96541.09;5075081;28;20208;-77
2022/09/18 00:04:54;;;;;;;5.43;1.13;;;;;;;9.29;100.00;96553.53;5071270;28;20208;-77
2022/09/18 00:07:21;;;;;;;1.67;1.10;;;;;;;9.28;100.00;96548.38;5087091;28;20263;-77
2022/09/18 00:09:48;;;;;;;1.10;0.90;;;;;;;9.35;100.00;96544.63;5080590;28;20198;-75
2022/09/18 00:12:15;;;;;;;1.87;0.90;;;;;;;9.29;100.00;96541.94;5088852;28;20196;-77
2022/09/18 00:14:43;;;;;;;1.10;1.00;;;;;;;9.36;100.00;96542.72;5085532;28;20220;-77
2022/09/18 00:17:10;;;;;;;1.17;0.80;;;;;;;9.31;100.00;96531.78;5098574;28;20206;-77
2022/09/18 00:19:37;;;;;;;1.13;0.90;;;;;;;9.35;100.00;96535.69;5096390;28;20283;-77
2022/09/18 00:22:06;;;;;;;2.80;1.00;;;;;;;9.29;100.00;96541.94;5072566;28;20240;-77
2022/09/18 00:24:33;;;;;;;0.70;0.70;;;;;;;9.26;100.00;96534.31;5088783;28;20273;-76
2022/09/18 00:26:59;;;;;;;1.23;0.90;;;;;;;9.36;100.00;96545.41;5073700;28;20208;-77
2022/09/18 00:29:27;;;;;;;1.10;1.00;;;;;;;9.35;100.00;96538.41;5072612;28;20204;-77
2022/09/18 00:31:54;;;;;;;0.87;0.80;;;;;;;9.39;100.00;96543.13;5073676;28;20192;-77
2022/09/18 00:34:21;;;;;;;1.00;0.90;;;;;;;9.45;100.00;96536.84;5080172;28;20291;-77
2022/09/18 00:36:49;;;;;;;2.13;0.97;;;;;;;9.43;100.00;96538.13;5075396;28;20196;-77
2022/09/18 00:39:17;;;;;;;2.80;0.90;;;;;;;9.57;100.00;96536.97;5084253;28;20208;-77
2022/09/18 00:41:45;;;;;;;1.17;0.90;;;;;;;9.53;100.00;96527.66;5087317;28;20204;-77
2022/09/18 00:44:35;;;;;;;3.83;0.97;;;;;;;9.50;100.00;96533.50;5074228;28;20216;-77
2022/09/18 00:47:13;;;;;;;1.00;0.90;;;;;;;9.48;100.00;96516.72;5075866;28;20234;-77
2022/09/18 00:49:44;;;;;;;1.10;0.80;;;;;;;9.55;100.00;96519.38;5077019;28;20204;-76
2022/09/18 00:52:14;;;;;;;1.63;0.93;;;;;;;9.56;100.00;96521.03;5096155;28;20246;-76
2022/09/18 00:54:47;;;;;;;2.00;0.90;;;;;;;9.55;100.00;96525.59;5087980;28;20196;-76
2022/09/18 00:57:19;;;;;;;2.07;1.23;;;;;;;9.52;100.00;96522.53;5099288;28;20243;-76
2022/09/18 00:59:49;;;;;;;1.23;0.90;;;;;;;9.48;100.00;96524.81;5090997;28;20204;-76
2022/09/18 01:02:17;;;;;;;1.07;0.97;;;;;;;9.44;100.00;96516.31;5075408;28;20296;-75
2022/09/18 01:04:44;;;;;;;1.03;0.93;;;;;;;9.47;100.00;96517.75;5090106;28;20280;-76
2022/09/18 01:07:18;;;;;;;1.57;0.80;;;;;;;9.47;100.00;96515.06;5076796;28;20209;-76
2022/09/18 01:09:58;;;;;;;1.00;0.80;;;;;;;9.39;100.00;96510.78;5078539;28;20208;-76
2022/09/18 01:12:33;;;;;;;1.50;0.90;;;;;;;9.35;100.00;96512.28;5081501;28;20349;-76
2022/09/18 01:15:05;;;;;;;0.93;0.77;;;;;;;9.43;100.00;96505.78;5084239;28;20227;-76
2022/09/18 01:17:41;;;;;;;1.10;1.00;;;;;;;9.35;100.00;96504.19;5096419;28;20207;-75
2022/09/18 01:20:49;;;;;;;1.63;0.90;;;;;;;9.40;100.00;96514.31;5076542;28;20232;-76
2022/09/18 01:23:42;;;;;;;1.63;0.90;;;;;;;9.41;100.00;96515.97;5078631;28;20200;-76
2022/09/18 01:26:26;;;;;;;2.17;1.13;;;;;;;9.39;100.00;96520.72;5106874;28;20252;-76
2022/09/18 01:28:59;;;;;;;3.80;1.20;;;;;;;9.36;100.00;96516.59;5092572;28;20268;-74
2022/09/18 01:31:30;;;;;;;1.70;0.97;;;;;;;9.34;100.00;96516.00;5092579;28;20207;-76
2022/09/18 01:34:02;;;;;;;1.67;0.90;;;;;;;9.41;100.00;96513.25;5085013;28;20211;-75
2022/09/18 01:36:34;;;;;;;1.47;0.90;;;;;;;9.46;100.00;96516.13;5081345;28;20197;-76
2022/09/18 01:39:10;;;;;;;1.20;1.10;;;;;;;9.53;100.00;96516.09;5079840;28;20209;-76
2022/09/18 01:41:41;;;;;;;3.87;1.10;;;;;;;9.46;100.00;96511.56;5077540;28;20201;-76
2022/09/18 01:44:20;;;;;;;2.73;1.03;;;;;;;9.35;100.00;96514.16;5077846;28;20211;-77
2022/09/18 01:46:49;;;;;;;2.40;1.20;;;;;;;9.29;100.00;96518.50;5088989;28;20278;-76
2022/09/18 01:49:21;;;;;;;2.50;0.97;;;;;;;9.30;100.00;96520.16;5096938;28;20266;-76
2022/09/18 01:51:52;;;;;;;2.07;1.10;;;;;;;9.28;100.00;96513.34;5079169;28;20200;-76
2022/09/18 01:54:24;;;;;;;2.80;1.03;;;;;;;9.26;100.00;96520.84;5087466;28;20209;-76
2022/09/18 01:56:56;;;;;;;2.10;0.90;;;;;;;9.23;100.00;96521.25;5074652;28;20258;-76
2022/09/18 01:59:28;;;;;;;1.50;0.90;;;;;;;9.19;100.00;96525.41;5079415;28;20212;-76
2022/09/18 02:02:12;;;;;;;1.50;0.90;;;;;;;9.13;100.00;96505.56;5088321;28;20235;-76
2022/09/18 02:04:44;;;;;;;1.87;1.03;;;;;;;9.18;100.00;96513.03;5086015;28;20207;-76
2022/09/18 02:07:18;;;;;;;2.83;1.20;;;;;;;9.17;100.00;96509.50;5087561;28;20227;-75
2022/09/18 02:09:46;;;;;;;1.70;1.00;;;;;;;9.16;100.00;96505.16;5079811;28;20197;-75
2022/09/18 02:12:19;;;;;;;1.63;0.90;;;;;;;9.17;100.00;96508.66;5075820;28;20204;-76
2022/09/18 02:14:54;;;;;;;1.47;1.10;;;;;;;9.18;100.00;96513.03;5086574;28;20228;-75
2022/09/18 02:17:37;;;;;;;1.50;0.87;;;;;;;9.17;100.00;96505.97;5078380;28;20196;-76
2022/09/18 02:20:12;;;;;;;1.10;0.90;;;;;;;9.17;100.00;96508.66;5084273;28;20203;-75
2022/09/18 02:22:45;;;;;;;2.53;0.93;;;;;;;9.17;100.00;96516.75;5080098;28;20250;-76
2022/09/18 02:25:17;;;;;;;4.23;1.57;;;;;;;9.16;100.00;96510.53;5094253;28;20201;-76
2022/09/18 02:27:44;;;;;;;2.83;1.00;;;;;;;9.16;100.00;96509.72;5080355;28;20303;-76
2022/09/18 02:30:13;;;;;;;1.47;1.00;;;;;;;9.05;100.00;96509.34;5079527;28;20209;-76
2022/09/18 02:32:41;;;;;;;1.83;1.00;;;;;;;9.01;100.00;96504.63;5080089;28;20249;-76
2022/09/18 02:35:10;;;;;;;1.10;1.00;;;;;;;9.02;100.00;96514.34;5074271;28;20200;-75
2022/09/18 02:37:50;;;;;;;1.07;1.00;;;;;;;9.04;100.00;96505.00;5087825;28;20300;-76
2022/09/18 02:40:33;;;;;;;1.20;0.97;;;;;;;8.98;100.00;96507.75;5079098;28;20216;-76
2022/09/18 02:43:15;;;;;;;1.20;0.90;;;;;;;8.89;100.00;96498.28;5074715;28;20224;-76
2022/09/18 02:45:48;;;;;;;2.23;0.97;;;;;;;8.90;100.00;96500.75;5074600;28;20223;-76
2022/09/18 02:48:30;;;;;;;1.47;1.20;;;;;;;8.90;100.00;96502.63;5076406;28;20215;-76
2022/09/18 02:51:07;;;;;;;1.13;0.87;;;;;;;8.89;100.00;96504.47;5082928;28;20212;-76
2022/09/18 02:53:43;;;;;;;2.77;1.00;;;;;;;8.91;100.00;96502.41;5087472;28;20200;-76
2022/09/18 02:56:18;;;;;;;2.03;1.27;;;;;;;8.87;100.00;96503.03;5086614;28;20203;-76
2022/09/18 02:58:51;;;;;;;0.90;0.90;;;;;;;8.86;100.00;96504.06;5096808;28;20200;-76
2022/09/18 03:01:23;;;;;;;1.97;1.00;;;;;;;8.92;100.00;96506.75;5080632;28;20294;-75
2022/09/18 03:03:51;;;;;;;1.40;0.97;;;;;;;8.85;100.00;96513.19;5082818;28;20217;-76
2022/09/18 03:06:21;;;;;;;1.27;1.00;;;;;;;8.80;100.00;96507.63;5081857;28;20208;-76
2022/09/18 03:08:48;;;;;;;2.70;1.10;;;;;;;8.85;100.00;96516.72;5100468;28;20200;-76
2022/09/18 03:11:16;;;;;;;1.53;1.03;;;;;;;8.79;100.00;96514.88;5075030;28;20256;-75
2022/09/18 03:13:44;;;;;;;1.90;1.00;;;;;;;8.74;100.00;96509.34;5085482;28;20196;-76
2022/09/18 03:16:11;;;;;;;1.43;1.00;;;;;;;8.71;100.00;96515.97;5076096;28;20229;-74
2022/09/18 03:18:39;;;;;;;1.57;0.90;;;;;;;8.67;100.00;96517.44;5073065;28;20243;-76
2022/09/18 03:21:06;;;;;;;1.07;0.97;;;;;;;8.65;100.00;96514.13;5084444;28;20242;-75
2022/09/18 03:23:34;;;;;;;1.60;1.00;;;;;;;8.64;100.00;96509.78;5078031;28;20193;-76
2022/09/18 03:26:21;;;;;;;1.73;0.90;;;;;;;8.59;100.00;96522.25;5095834;28;20278;-76
2022/09/18 03:28:48;;;;;;;2.13;1.10;;;;;;;8.56;100.00;96519.97;5081341;28;20197;-76
2022/09/18 03:31:17;;;;;;;1.47;0.80;;;;;;;8.55;100.00;96529.06;5079593;28;20274;-75
2022/09/18 03:33:46;;;;;;;2.20;1.00;;;;;;;8.62;100.00;96529.88;5079312;28;20213;-76
2022/09/18 03:36:14;;;;;;;1.43;1.00;;;;;;;8.58;100.00;96518.72;5079723;28;20201;-76
2022/09/18 03:38:41;;;;;;;0.80;0.80;;;;;;;8.57;100.00;96527.00;5093264;28;20211;-76
2022/09/18 03:41:09;;;;;;;2.90;1.20;;;;;;;8.53;100.00;96515.84;5076198;28;20208;-76
2022/09/18 03:43:40;;;;;;;1.23;0.93;;;;;;;8.50;100.00;96521.66;5092316;28;20261;-76
2022/09/18 03:46:09;;;;;;;2.53;1.07;;;;;;;8.50;100.00;96520.84;5076025;28;20217;-76
2022/09/18 03:48:36;;;;;;;1.83;0.90;;;;;;;8.51;100.00;96519.75;5074132;28;20306;-76
2022/09/18 03:51:05;;;;;;;0.80;0.80;;;;;;;8.52;100.00;96524.13;5083045;28;20219;-74
2022/09/18 03:53:33;;;;;;;1.63;1.47;;;;;;;8.51;100.00;96517.06;5083612;28;20199;-76
2022/09/18 03:56:23;;;;;;;1.90;1.00;;;;;;;8.51;100.00;96527.84;5071178;28;20283;-75
2022/09/18 03:59:15;;;;;;;2.33;0.90;;;;;;;8.45;100.00;96534.91;5088118;28;20217;-76
2022/09/18 04:01:51;;;;;;;2.23;1.00;;;;;;;8.41;100.00;96533.69;5089274;28;20302;-75
2022/09/18 04:04:28;;;;;;;3.03;1.43;;;;;;;8.38;100.00;96541.34;5090589;28;20205;-76
2022/09/18 04:07:07;;;;;;;2.57;1.30;;;;;;;8.38;100.00;96538.66;5095199;28;20230;-75
2022/09/18 04:09:39;;;;;;;1.20;1.10;;;;;;;8.33;100.00;96537.44;5094021;28;20205;-76
2022/09/18 04:12:07;;;;;;;1.10;1.00;;;;;;;8.32;100.00;96543.88;5073377;28;20257;-76
2022/09/18 04:14:34;;;;;;;1.10;1.00;;;;;;;8.27;100.00;96554.38;5069607;28;20205;-75
2022/09/18 04:17:04;;;;;;;1.53;1.10;;;;;;;8.25;100.00;96542.19;5075194;28;20196;-76
2022/09/18 04:19:31;;;;;;;1.00;1.00;;;;;;;8.22;100.00;96534.53;5079717;28;20270;-76
2022/09/18 04:21:58;;;;;;;8.10;2.17;;;;;;;8.22;100.00;96535.38;5070944;28;20242;-76
2022/09/18 04:24:27;;;;;;;1.40;1.17;;;;;;;8.23;100.00;96534.34;5076877;28;20204;-76
2022/09/18 04:26:54;;;;;;;2.37;1.10;;;;;;;8.15;100.00;96539.94;5096653;28;20232;-76
2022/09/18 04:29:24;;;;;;;8.57;1.20;;;;;;;8.11;100.00;96545.94;5082688;28;20207;-76
2022/09/18 04:31:51;;;;;;;1.70;1.10;;;;;;;8.09;100.00;96538.06;5080873;28;20208;-75
2022/09/18 04:34:21;;;;;;;1.87;1.30;;;;;;;8.09;100.00;96543.44;5080511;28;20287;-76
2022/09/18 04:36:48;;;;;;;0.93;0.90;;;;;;;8.10;100.00;96537.03;5076182;28;20580;-76
2022/09/18 04:39:15;;;;;;;1.57;1.10;;;;;;;8.08;100.00;96539.09;5095240;28;20192;-76
2022/09/18 04:41:45;;;;;;;1.20;1.10;;;;;;;8.07;100.00;96540.16;5084529;28;20195;-76
2022/09/18 04:44:14;;;;;;;1.93;1.33;;;;;;;8.03;100.00;96543.47;5076701;28;20228;-76
2022/09/18 04:46:42;;;;;;;2.00;1.37;;;;;;;7.98;100.00;96549.50;5079031;28;20215;-75
2022/09/18 04:49:10;;;;;;;2.60;1.37;;;;;;;7.96;100.00;96547.00;5076293;28;20254;-76
2022/09/18 04:51:38;;;;;;;3.90;1.40;;;;;;;7.95;100.00;96549.91;5069401;28;20207;-76
2022/09/18 04:54:05;;;;;;;2.23;1.30;;;;;;;7.88;100.00;96535.63;5088205;28;20258;-75
2022/09/18 04:56:36;;;;;;;3.07;1.80;;;;;;;7.94;100.00;96551.75;5084631;28;20206;-76
2022/09/18 04:59:05;;;;;;;2.10;1.10;;;;;;;7.90;100.00;96547.84;5081183;28;20227;-76
2022/09/18 05:01:33;;;;;;;1.20;1.00;;;;;;;7.89;100.00;96556.94;5073598;28;20398;-76
2022/09/18 05:04:07;;;;;;;1.40;1.10;;;;;;;7.88;100.00;96554.47;5077486;28;20210;-76
2022/09/18 05:06:58;;;;;;;3.40;1.37;;;;;;;7.88;100.00;96565.22;5077448;28;20216;-75
2022/09/18 05:09:25;;;;;;;2.83;1.17;;;;;;;7.85;100.00;96560.25;5079528;28;20208;-76
2022/09/18 05:11:53;;;;;;;2.50;1.30;;;;;;;7.87;100.00;96563.56;5070894;28;20199;-76
2022/09/18 05:14:24;;;;;;;1.60;1.10;;;;;;;7.87;100.00;96567.06;5079900;28;20203;-76
2022/09/18 05:16:55;;;;;;;1.27;0.90;;;;;;;7.89;100.00;96569.56;5090846;28;20308;-76
2022/09/18 05:19:29;;;;;;;2.33;1.33;;;;;;;7.91;100.00;96575.56;5073714;28;20261;-75
2022/09/18 05:22:03;;;;;;;1.40;1.17;;;;;;;7.87;100.00;96571.63;5073283;28;20244;-76
2022/09/18 05:24:34;;;;;;;3.23;1.50;;;;;;;7.89;100.00;96575.75;5084514;28;20208;-76
2022/09/18 05:27:02;;;;;;;2.83;1.40;;;;;;;7.89;100.00;96574.94;5074408;28;20284;-76
2022/09/18 05:29:31;;;;;;;1.77;1.20;;;;;;;7.85;100.00;96571.00;5072664;28;20197;-76
2022/09/18 05:32:07;;;;;;;5.67;2.60;;;;;;;7.81;100.00;96578.66;5078936;28;20289;-76
2022/09/18 05:34:36;;;;;;;2.17;1.57;;;;;;;7.78;100.00;96583.63;5073699;28;20212;-76
2022/09/18 05:37:03;;;;;;;3.73;1.30;;;;;;;7.81;100.00;96577.84;5066970;28;20197;-76
2022/09/18 05:39:30;;;;;;;1.33;1.10;;;;;;;7.82;100.00;96576.81;5066191;28;20225;-76
2022/09/18 05:42:00;;;;;;;2.13;1.37;;;;;;;7.82;100.00;96587.56;5073934;28;20225;-75
2022/09/18 05:44:28;;;;;;;1.90;1.57;;;;;;;7.77;100.00;96590.84;5081012;28;20206;-76
2022/09/18 05:46:57;;;;;;;4.93;1.40;;;;;;;7.76;100.00;96589.19;5068842;28;20312;-76
2022/09/18 05:49:25;;;;;;;2.87;1.40;;;;;;;7.76;100.00;96583.81;5073396;28;20301;-76
2022/09/18 05:51:53;;;;;;;2.20;1.53;;;;;;;7.79;100.00;96594.16;5074476;28;20250;-76
2022/09/18 05:54:20;;;;;;;1.73;1.10;;;;;;;7.84;100.00;96586.28;5087636;28;20204;-76
2022/09/18 05:56:49;;;;;;;1.73;1.30;;;;;;;7.83;100.00;96589.19;5081362;28;20188;-75
2022/09/18 05:59:16;;;;;;;1.77;1.30;;;;;;;7.83;100.00;96589.19;5081850;28;20197;-76
2022/09/18 06:01:47;;;;;;;1.70;1.47;;;;;;;7.79;100.00;96593.34;5086515;28;20198;-76
2022/09/18 06:04:26;;;;;;;3.80;1.87;;;;;;;7.75;100.00;96598.28;5092845;28;20287;-76
2022/09/18 06:07:01;;;;;;;2.37;1.47;;;;;;;7.77;100.00;96596.22;5082561;28;20312;-76
2022/09/18 06:09:29;;;;;;;1.80;1.47;;;;;;;7.80;100.00;96589.63;5080180;28;20206;-76
2022/09/18 06:11:56;;;;;;;2.73;1.33;;;;;;;7.82;100.00;96598.31;5072670;28;20213;-76
2022/09/18 06:14:23;;;;;;;5.70;1.30;;;;;;;7.81;100.00;96592.09;5080104;28;20193;-76
2022/09/18 06:16:50;;;;;;;2.17;1.10;;;;;;;7.82;100.00;96591.06;5082212;28;20252;-76
2022/09/18 06:19:17;;;;;;;2.23;1.10;;;;;;;7.84;100.00;96590.84;5076647;28;20209;-75
2022/09/18 06:21:48;;;;;;;2.53;1.20;;;;;;;7.82;100.00;96588.38;5078496;28;20232;-76
2022/09/18 06:24:18;;;;;;;1.07;1.00;;;;;;;7.76;100.00;96591.06;5073174;28;20197;-76
2022/09/18 06:27:06;;;;;;;1.80;1.27;;;;;;;7.75;100.00;96586.69;5072025;28;20230;-78
2022/09/18 06:29:34;;;;;;;1.80;1.27;;;;;;;7.80;100.00;96590.44;5087196;28;20303;-78
2022/09/18 06:32:08;;;;;;;5.17;1.40;;;;;;;7.77;100.00;96588.16;5074719;28;20201;-78
2022/09/18 06:34:35;;;;;;;3.00;1.37;;;;;;;7.73;100.00;96586.09;5076169;28;20202;-75
2022/09/18 06:37:09;;;;;;;2.87;1.60;;;;;;;7.72;100.00;96581.75;5069891;28;20228;-76
2022/09/18 06:39:42;;;;;;;2.23;1.53;;;;;;;7.70;100.00;96581.13;5068784;28;20201;-76
2022/09/18 06:42:16;;;;;;;3.67;2.03;;;;;;;7.68;100.00;96584.03;5071145;28;20193;-76
2022/09/18 06:44:47;;;;;;;4.63;1.90;;;;;;;7.70;100.00;96589.19;5081791;28;20201;-76
2022/09/18 06:47:16;;;;;;;2.73;1.70;;;;;;;7.71;100.00;96591.69;5078155;28;20291;-76
2022/09/18 06:49:45;;;;;;;4.37;1.80;;;;;;;7.72;100.00;96587.97;5072283;28;20261;-75
2022/09/18 06:52:14;;;;;;;2.20;2.00;;;;;;;7.70;100.00;96583.81;5078431;28;20216;-76
2022/09/18 06:54:41;;;;;;;4.10;2.10;;;;;;;7.71;100.00;96589.00;5076988;28;20208;-75
2022/09/18 06:57:08;;;;;;;3.57;2.63;;;;;;;7.72;100.00;96595.19;5073159;28;20259;-77
2022/09/18 06:59:36;;;;;;;3.83;1.87;;;;;;;7.81;100.00;96596.66;5077196;28;20216;-78
2022/09/18 07:02:04;;;;;;;3.33;1.90;;;;;;;7.82;100.00;96595.63;5072734;28;20212;-76
2022/09/18 07:04:48;;;;;;;2.33;1.60;;;;;;;7.84;100.00;96597.03;5074959;28;20222;-76
2022/09/18 07:07:19;;;;;;;2.07;1.83;;;;;;;7.82;100.00;96588.38;5076747;28;20212;-76
2022/09/18 07:09:49;;;;;;;1.53;1.30;;;;;;;7.85;100.00;96587.13;5073015;28;20205;-76
2022/09/18 07:12:23;;;;;;;2.20;1.13;;;;;;;7.87;100.00;96585.88;5073989;28;20243;-76
2022/09/18 07:14:53;;;;;;;2.10;1.50;;;;;;;7.89;100.00;96588.38;5075608;28;20282;-76
2022/09/18 07:17:22;;;;;;;1.27;1.17;;;;;;;7.90;100.00;96593.56;5078133;28;20208;-76
2022/09/18 07:19:52;;;;;;;1.40;1.30;;;;;;;7.94;100.00;96588.56;5074023;28;20242;-76
2022/09/18 07:22:24;;;;;;;3.23;1.53;;;;;;;7.99;100.00;96589.59;5070222;28;20270;-76
2022/09/18 07:24:53;;;;;;;1.93;1.27;;;;;;;7.99;100.00;96588.78;5070321;28;20256;-76
2022/09/18 07:27:20;;;;;;;4.73;1.60;;;;;;;8.02;100.00;96592.91;5072184;28;20224;-76
2022/09/18 07:29:49;;;;;;;3.13;1.30;;;;;;;8.03;100.00;96590.00;5076043;28;20210;-76
2022/09/18 07:32:21;;;;;;;2.37;1.50;;;;;;;8.03;100.00;96594.56;5076424;28;20220;-75
2022/09/18 07:34:49;;;;;;;4.07;2.57;;;;;;;8.11;100.00;96599.72;5072661;28;20209;-75
2022/09/18 07:37:24;;;;;;;3.30;1.47;;;;;;;8.18;100.00;96593.28;5069207;28;20200;-76
2022/09/18 07:40:20;;;;;;;3.00;1.57;;;;;;;8.26;100.00;96594.94;5070397;28;20205;-76
2022/09/18 07:43:14;;;;;;;2.67;1.50;;;;;;;8.32;100.00;96604.91;5068165;28;20209;-76
2022/09/18 07:45:50;;;;;;;2.93;2.03;;;;;;;8.37;100.00;96601.56;5078543;28;20200;-76
2022/09/18 07:48:17;;;;;;;4.27;1.90;;;;;;;8.41;100.00;96602.81;5077251;28;20316;-75
2022/09/18 07:50:48;;;;;;;2.10;1.73;;;;;;;8.43;100.00;96606.09;5073246;28;20204;-76
2022/09/18 07:53:19;;;;;;;4.47;1.57;;;;;;;8.44;100.00;96615.84;5073030;28;20208;-76
2022/09/18 07:55:49;;;;;;;2.57;1.20;;;;;;;8.47;100.00;96612.75;5078692;28;20211;-76
2022/09/18 07:58:16;;;;;;;1.97;1.10;;;;;;;8.47;100.00;96618.94;5073094;28;20205;-76
2022/09/18 08:01:05;;;;;;;0.90;0.90;;;;;;;8.49;100.00;96616.88;5076589;28;20208;-76
2022/09/18 08:03:37;;;;;;;1.40;1.10;;;;;;;8.57;100.00;96613.97;5077590;28;20291;-76
2022/09/18 08:06:10;;;;;;;1.70;1.60;;;;;;;8.65;100.00;96619.13;5072357;28;20210;-76
2022/09/18 08:08:45;;;;;;;4.00;1.90;;;;;;;8.78;100.00;96612.84;5074465;28;20251;-75
2022/09/18 08:11:22;;;;;;;2.70;2.30;;;;;;;9.09;100.00;96612.94;5071842;28;20205;-76
2022/09/18 08:14:00;;;;;;;2.70;1.57;;;;;;;9.40;100.00;96614.03;5075750;28;20220;-76
2022/09/18 08:17:03;;;;;;;2.97;1.53;;;;;;;9.74;100.00;96618.16;5077059;28;20201;-77
2022/09/18 08:19:57;;;;;;;2.37;2.17;;;;;;;10.01;100.00;96613.38;5037190;28;20355;-76
2022/09/18 08:22:45;;;;;;;2.53;1.50;;;;;;;10.28;100.00;96608.63;5055716;28;20210;-77
2022/09/18 08:25:15;;;;;;;2.80;1.20;;;;;;;10.49;100.00;96606.31;5058225;28;20225;-77
2022/09/18 08:27:46;;;;;;;2.77;1.20;;;;;;;10.78;100.00;96604.78;5054139;28;20214;-75
2022/09/18 08:30:16;;;;;;;1.43;1.20;;;;;;;11.07;100.00;96599.63;5050660;28;20213;-76
2022/09/18 08:32:48;;;;;;;2.10;1.13;;;;;;;11.34;100.00;96593.66;5049271;28;20206;-76
2022/09/18 08:35:18;;;;;;;1.93;1.20;;;;;;;11.52;100.00;96594.66;5059873;28;20251;-76
2022/09/18 08:37:48;;;;;;;1.37;0.93;;;;;;;11.65;100.00;96597.19;5060704;28;20241;-77
2022/09/18 08:41:11;;;;;;;1.50;0.80;;;;;;;11.85;100.00;96589.63;5061220;28;20209;-77
2022/09/18 08:43:54;;;;;;;1.43;1.00;;;;;;;12.10;100.00;96586.72;4976184;28;20212;-75
2022/09/18 08:46:30;;;;;;;2.50;1.00;;;;;;;12.12;100.00;96585.41;5040401;28;20202;-77
2022/09/18 08:49:07;;;;;;;1.80;0.90;;;;;;;12.32;100.00;96597.81;5049934;28;20263;-77
2022/09/18 08:51:41;;;;;;;0.97;0.80;;;;;;;12.64;100.00;96588.25;5067799;28;20209;-77
2022/09/18 08:54:20;;;;;;;3.07;1.00;;;;;;;12.88;100.00;96589.03;5059103;28;20281;-76
2022/09/18 08:57:20;;;;;;;1.67;0.90;;;;;;;13.24;100.00;96594.16;5051981;28;20216;-77
2022/09/18 09:00:05;;;;;;;2.13;0.90;;;;;;;13.60;99.57;96582.09;5049556;28;20209;-77
2022/09/18 09:02:39;;;;;;;1.30;0.90;;;;;;;13.82;95.13;96573.25;5057724;28;20214;-76
2022/09/18 09:05:12;;;;;;;4.17;0.90;;;;;;;13.77;90.53;96571.28;5047683;28;20202;-77
2022/09/18 09:08:23;;;;;;;4.73;1.00;;;;;;;13.74;87.14;96563.63;5058494;28;20316;-77
2022/09/18 09:11:01;;;;;;;1.57;0.90;;;;;;;13.98;87.89;96575.97;5007431;28;20231;-77
2022/09/18 09:14:15;;;;;;;1.47;0.93;;;;;;;13.95;85.06;96570.22;5040173;28;20221;-77
2022/09/18 09:16:44;;;;;;;0.90;0.77;;;;;;;14.12;87.17;96565.59;5043512;28;20232;-76
2022/09/18 09:19:30;;;;;;;1.70;1.10;;;;;;;14.25;82.60;96576.13;5047050;28;20205;-77
2022/09/18 09:22:06;;;;;;;0.97;0.87;;;;;;;14.41;81.14;96576.41;5066903;28;20320;-77
2022/09/18 09:24:40;;;;;;;3.23;1.20;;;;;;;14.44;79.13;96565.88;5078321;28;20249;-76
2022/09/18 09:27:33;;;;;;;1.53;0.80;;;;;;;14.15;77.30;96559.69;5073885;28;20200;-76
2022/09/18 09:30:25;;;;;;;2.40;1.00;;;;;;;14.34;81.42;96561.06;5073377;28;20216;-75
2022/09/18 09:33:20;;;;;;;2.10;1.00;;;;;;;14.70;79.97;96557.00;5074625;28;20343;-77
2022/09/18 09:36:10;;;;;;;1.17;0.93;;;;;;;15.15;74.29;96551.31;5080109;28;20239;-77
2022/09/18 09:38:54;;;;;;;2.30;1.10;;;;;;;15.48;69.96;96553.03;5073574;28;20292;-76
2022/09/18 09:41:29;;;;;;;2.70;1.20;;;;;;;15.60;67.01;96552.94;5071456;28;20203;-77
2022/09/18 09:44:09;;;;;;;3.00;1.20;;;;;;;15.76;64.29;96549.28;5080283;28;20209;-77
2022/09/18 09:46:57;;;;;;;3.60;1.20;;;;;;;15.68;60.01;96552.47;5084003;28;20219;-77
2022/09/18 09:49:27;;;;;;;1.23;0.97;;;;;;;15.75;61.02;96541.34;5073063;28;20209;-76
2022/09/18 09:52:07;;;;;;;2.70;1.00;;;;;;;15.74;60.50;96542.44;5075597;28;20212;-75
2022/09/18 09:54:34;;;;;;;2.47;1.07;;;;;;;15.87;61.37;96534.69;5072437;28;20185;-77
2022/09/18 09:57:12;;;;;;;1.40;1.10;;;;;;;16.09;60.86;96539.19;5071842;28;20209;-77
2022/09/18 09:59:47;;;;;;;1.53;0.90;;;;;;;16.24;61.88;96532.00;5069922;28;20206;-77
2022/09/18 10:02:32;;;;;;;2.87;1.00;;;;;;;16.32;61.68;96538.84;5081967;28;20193;-77
2022/09/18 10:05:13;;;;;;;2.63;1.30;;;;;;;16.54;61.51;96534.09;5078531;28;20204;-77
2022/09/18 10:07:47;;;;;;;2.93;0.90;;;;;;;16.71;59.34;96527.66;5080552;28;20285;-77
2022/09/18 10:10:23;;;;;;;2.77;1.30;;;;;;;16.82;60.52;96513.81;5067193;28;21022;-77
2022/09/18 10:12:56;;;;;;;1.87;0.90;;;;;;;16.82;59.98;96511.09;5090266;28;20227;-77
2022/09/18 10:15:35;;;;;;;2.17;1.13;;;;;;;16.83;57.55;96514.66;5083494;28;20221;-78
2022/09/18 10:18:13;;;;;;;0.87;0.83;;;;;;;16.78;59.13;96506.41;5074283;28;20211;-78
2022/09/18 10:20:42;;;;;;;1.00;0.90;;;;;;;16.67;59.94;96502.03;5087424;28;20235;-77
2022/09/18 10:23:23;;;;;;;0.77;0.77;;;;;;;16.84;60.88;96502.66;5086855;28;20208;-77
2022/09/18 10:25:54;;;;;;;2.30;0.97;;;;;;;16.85;60.57;96493.34;5081469;28;20492;-77
2022/09/18 10:28:24;;;;;;;3.17;0.90;;;;;;;16.97;59.36;96492.06;5080061;28;20225;-78
2022/09/18 10:30:54;;;;;;;1.83;0.90;;;;;;;16.80;59.64;96493.34;5080332;28;20201;-77
2022/09/18 10:33:38;;;;;;;1.57;1.20;;;;;;;16.98;60.43;96480.06;5086404;28;20211;-77
2022/09/18 10:36:18;;;;;;;1.73;0.80;;;;;;;17.00;59.66;96477.06;5076770;28;20213;-77
2022/09/18 10:38:46;;;;;;;1.30;0.93;;;;;;;16.98;57.00;96482.78;5079087;28;20204;-76
2022/09/18 10:41:28;;;;;;;1.47;0.97;;;;;;;17.07;58.21;96482.28;5076005;28;20201;-77
2022/09/18 10:44:00;;;;;;;0.93;0.80;;;;;;;17.19;56.82;96480.13;5069269;28;20290;-78
2022/09/18 10:46:32;;;;;;;2.73;1.10;;;;;;;17.15;58.20;96474.38;5073003;28;20205;-77
2022/09/18 10:49:16;;;;;;;1.00;0.90;;;;;;;17.39;57.52;96472.81;5082703;28;20224;-78
2022/09/18 10:51:44;;;;;;;1.53;1.03;;;;;;;17.16;56.71;96465.13;5075625;28;20196;-78
2022/09/18 10:54:17;;;;;;;1.87;1.00;;;;;;;17.21;58.44;96472.47;5079387;28;20210;-77
2022/09/18 10:56:55;;;;;;;3.20;1.10;;;;;;;17.45;59.09;96465.44;5081739;28;20204;-78
2022/09/18 10:59:34;;;;;;;3.33;1.13;;;;;;;17.52;59.31;96465.19;5078384;28;20213;-78
2022/09/18 11:02:03;;;;;;;1.20;1.10;;;;;;;17.47;57.90;96465.16;5072614;28;20204;-78
2022/09/18 11:04:34;;;;;;;1.70;0.90;;;;;;;17.44;58.44;96460.28;5074521;28;20295;-78
2022/09/18 11:07:06;;;;;;;4.30;1.10;;;;;;;17.62;60.99;96457.00;5078571;28;20209;-78
2022/09/18 11:09:37;;;;;;;1.97;1.07;;;;;;;17.72;57.42;96448.84;5077277;28;20221;-78
2022/09/18 11:12:16;;;;;;;2.70;0.80;;;;;;;17.83;57.34;96449.66;5072763;28;20224;-77
2022/09/18 11:14:47;;;;;;;2.87;0.87;;;;;;;17.82;56.03;96445.28;5090007;28;20220;-77
2022/09/18 11:17:26;;;;;;;4.20;1.07;;;;;;;17.81;57.12;96441.72;5076905;28;20303;-77
2022/09/18 11:19:58;;;;;;;4.27;1.27;;;;;;;17.96;57.34;96452.66;5072557;28;20212;-78
2022/09/18 11:22:41;;;;;;;1.17;0.83;;;;;;;18.15;56.81;96440.06;5072499;28;20237;-78
2022/09/18 11:25:27;;;;;;;3.03;1.00;;;;;;;18.37;57.27;96438.94;5075768;28;20241;-78
2022/09/18 11:28:21;;;;;;;2.83;0.90;;;;;;;18.15;55.52;96431.88;5088899;28;20230;-78
2022/09/18 11:30:57;;;;;;;1.93;1.00;;;;;;;18.14;56.94;96432.94;5076756;28;20203;-78
2022/09/18 11:33:27;;;;;;;1.17;0.83;;;;;;;18.33;57.63;96437.84;5075431;28;20201;-78
2022/09/18 11:36:03;;;;;;;1.27;0.90;;;;;;;18.33;57.20;96424.16;5077410;28;20213;-78
2022/09/18 11:38:32;;;;;;;1.13;0.90;;;;;;;18.12;56.03;96426.94;5069899;28;20197;-78
2022/09/18 11:41:03;;;;;;;1.27;0.93;;;;;;;18.11;58.38;96427.25;5072954;28;20201;-78
2022/09/18 11:43:39;;;;;;;1.70;1.00;;;;;;;18.25;57.03;96422.84;5079290;28;20195;-77
2022/09/18 11:46:18;;;;;;;2.70;0.80;;;;;;;18.26;56.90;96413.53;5079460;28;20204;-76
2022/09/18 11:48:52;;;;;;;2.10;1.10;;;;;;;18.33;57.02;96400.38;5072769;28;20221;-72
2022/09/18 11:51:26;;;;;;;1.30;0.90;;;;;;;18.64;56.54;96398.38;5077779;28;20337;-72
2022/09/18 11:54:03;;;;;;;0.93;0.77;;;;;;;18.79;55.46;96406.53;5073224;28;20255;-72
2022/09/18 11:56:38;;;;;;;1.47;0.93;;;;;;;18.45;55.11;96392.72;5078571;28;20219;-72
2022/09/18 11:59:22;;;;;;;1.83;0.90;;;;;;;18.61;54.50;96393.50;5073979;28;20215;-72
2022/09/18 12:01:54;;;;;;;2.50;1.00;;;;;;;18.52;55.07;96397.88;5071174;28;20228;-72
2022/09/18 12:04:32;;;;;;;2.27;0.90;;;;;;;18.49;54.23;96390.22;5089903;28;20325;-72
2022/09/18 12:07:13;;;;;;;1.00;0.90;;;;;;;18.44;55.03;96392.97;5094742;28;20204;-72